sensor_id;sensor_type;location;lat;lon;timestamp;temperature;humidity
33837;DHT22;20140;49.356;8.812;2023-06-22T00:01:58;20.60;99.90
33837;DHT22;20140;49.356;8.812;2023-06-22T00:04:24;20.60;99.90
33837;DHT22;20140;49.356;8.812;2023-06-22T00:06:49;20.60;99.90
33837;DHT22;20140;49.356;8.812;2023-06-22T00:09:15;20.50;99.90
33837;DHT22;20140;49.356;8.812;2023-06-22T00:11:40;20.50;99.90
33837;DHT22;20140;49.356;8.812;2023-06-22T00:14:06;20.50;99.90
33837;DHT22;20140;49.356;8.812;2023-06-22T00:16:32;20.40;99.90
33837;DHT22;20140;49.356;8.812;2023-06-22T00:18:58;20.50;99.90
33837;DHT22;20140;49.356;8.812;2023-06-22T00:21:26;20.50;99.90
33837;DHT22;20140;49.356;8.812;2023-06-22T00:23:52;20.40;99.90
33837;DHT22;20140;49.356;8.812;2023-06-22T00:26:17;20.40;99.90
33837;DHT22;20140;49.356;8.812;2023-06-22T00:28:43;20.30;99.90
33837;DHT22;20140;49.356;8.812;2023-06-22T00:31:08;20.20;99.90
33837;DHT22;20140;49.356;8.812;2023-06-22T00:33:34;20.10;99.90
33837;DHT22;20140;49.356;8.812;2023-06-22T00:36:00;20.10;99.90
33837;DHT22;20140;49.356;8.812;2023-06-22T00:38:25;20.00;99.90
33837;DHT22;20140;49.356;8.812;2023-06-22T00:40:51;20.10;99.90
33837;DHT22;20140;49.356;8.812;2023-06-22T00:43:16;20.10;99.90
33837;DHT22;20140;49.356;8.812;2023-06-22T00:45:42;20.10;99.90
33837;DHT22;20140;49.356;8.812;2023-06-22T00:48:08;20.00;99.90
33837;DHT22;20140;49.356;8.812;2023-06-22T00:50:34;20.00;99.90
33837;DHT22;20140;49.356;8.812;2023-06-22T00:53:08;20.00;99.90
33837;DHT22;20140;49.356;8.812;2023-06-22T00:55:39;20.10;99.90
33837;DHT22;20140;49.356;8.812;2023-06-22T00:58:07;20.30;99.90
33837;DHT22;20140;49.356;8.812;2023-06-22T01:00:36;20.30;99.90
33837;DHT22;20140;49.356;8.812;2023-06-22T01:03:01;20.30;99.90
33837;DHT22;20140;49.356;8.812;2023-06-22T01:05:27;20.30;99.90
33837;DHT22;20140;49.356;8.812;2023-06-22T01:10:42;21.40;99.90
33837;DHT22;20140;49.356;8.812;2023-06-22T01:16:29;21.40;99.90
33837;DHT22;20140;49.356;8.812;2023-06-22T01:18:57;20.90;99.90
33837;DHT22;20140;49.356;8.812;2023-06-22T01:21:24;20.30;99.90
33837;DHT22;20140;49.356;8.812;2023-06-22T01:23:56;20.00;99.90
33837;DHT22;20140;49.356;8.812;2023-06-22T01:26:38;19.90;99.90
33837;DHT22;20140;49.356;8.812;2023-06-22T01:29:04;19.80;99.90
33837;DHT22;20140;49.356;8.812;2023-06-22T01:31:31;19.80;99.90
33837;DHT22;20140;49.356;8.812;2023-06-22T01:34:00;19.80;99.90
33837;DHT22;20140;49.356;8.812;2023-06-22T01:36:27;19.80;99.90
33837;DHT22;20140;49.356;8.812;2023-06-22T01:38:53;19.80;99.90
33837;DHT22;20140;49.356;8.812;2023-06-22T01:41:20;19.70;99.90
33837;DHT22;20140;49.356;8.812;2023-06-22T01:43:47;19.80;99.90
33837;DHT22;20140;49.356;8.812;2023-06-22T01:46:13;19.80;99.90
33837;DHT22;20140;49.356;8.812;2023-06-22T01:48:40;19.70;99.90
33837;DHT22;20140;49.356;8.812;2023-06-22T01:51:06;19.70;99.90
33837;DHT22;20140;49.356;8.812;2023-06-22T01:53:31;19.70;99.90
33837;DHT22;20140;49.356;8.812;2023-06-22T01:55:57;19.70;99.90
33837;DHT22;20140;49.356;8.812;2023-06-22T01:58:26;19.60;99.90
33837;DHT22;20140;49.356;8.812;2023-06-22T02:00:58;19.50;99.90
33837;DHT22;20140;49.356;8.812;2023-06-22T02:03:35;19.40;99.90
33837;DHT22;20140;49.356;8.812;2023-06-22T02:06:05;19.30;99.90
33837;DHT22;20140;49.356;8.812;2023-06-22T02:08:38;19.30;99.90
33837;DHT22;20140;49.356;8.812;2023-06-22T02:11:03;19.20;99.90
33837;DHT22;20140;49.356;8.812;2023-06-22T02:13:32;19.20;99.90
33837;DHT22;20140;49.356;8.812;2023-06-22T02:15:58;19.10;99.90
33837;DHT22;20140;49.356;8.812;2023-06-22T02:18:24;19.10;99.90
33837;DHT22;20140;49.356;8.812;2023-06-22T02:20:50;19.10;99.90
33837;DHT22;20140;49.356;8.812;2023-06-22T02:23:16;19.10;99.90
33837;DHT22;20140;49.356;8.812;2023-06-22T02:25:41;19.00;99.90
33837;DHT22;20140;49.356;8.812;2023-06-22T02:28:09;19.00;99.90
33837;DHT22;20140;49.356;8.812;2023-06-22T02:30:35;18.90;99.90
33837;DHT22;20140;49.356;8.812;2023-06-22T02:33:00;18.90;99.90
33837;DHT22;20140;49.356;8.812;2023-06-22T02:35:29;18.90;99.90
33837;DHT22;20140;49.356;8.812;2023-06-22T02:37:58;18.90;99.90
33837;DHT22;20140;49.356;8.812;2023-06-22T02:40:24;18.80;99.90
33837;DHT22;20140;49.356;8.812;2023-06-22T02:42:50;18.70;99.90
33837;DHT22;20140;49.356;8.812;2023-06-22T02:45:15;18.70;99.90
33837;DHT22;20140;49.356;8.812;2023-06-22T02:47:41;18.60;99.90
33837;DHT22;20140;49.356;8.812;2023-06-22T02:50:07;18.70;99.90
33837;DHT22;20140;49.356;8.812;2023-06-22T02:52:32;18.70;99.90
33837;DHT22;20140;49.356;8.812;2023-06-22T02:54:59;18.70;99.90
33837;DHT22;20140;49.356;8.812;2023-06-22T02:57:24;18.60;99.90
33837;DHT22;20140;49.356;8.812;2023-06-22T02:59:50;18.70;99.90
33837;DHT22;20140;49.356;8.812;2023-06-22T03:02:15;18.60;99.90
33837;DHT22;20140;49.356;8.812;2023-06-22T03:04:41;18.60;99.90
33837;DHT22;20140;49.356;8.812;2023-06-22T03:07:08;18.70;99.90
33837;DHT22;20140;49.356;8.812;2023-06-22T03:09:33;18.60;99.90
33837;DHT22;20140;49.356;8.812;2023-06-22T03:11:59;18.60;99.90
33837;DHT22;20140;49.356;8.812;2023-06-22T03:14:24;18.60;99.90
33837;DHT22;20140;49.356;8.812;2023-06-22T03:16:50;18.60;99.90
33837;DHT22;20140;49.356;8.812;2023-06-22T03:19:15;18.60;99.90
33837;DHT22;20140;49.356;8.812;2023-06-22T03:21:42;18.60;99.90
33837;DHT22;20140;49.356;8.812;2023-06-22T03:24:07;18.60;99.90
33837;DHT22;20140;49.356;8.812;2023-06-22T03:26:34;18.60;99.90
33837;DHT22;20140;49.356;8.812;2023-06-22T03:29:00;18.60;99.90
33837;DHT22;20140;49.356;8.812;2023-06-22T03:31:25;18.50;99.90
33837;DHT22;20140;49.356;8.812;2023-06-22T03:33:51;18.60;99.90
33837;DHT22;20140;49.356;8.812;2023-06-22T03:36:17;18.50;99.90
33837;DHT22;20140;49.356;8.812;2023-06-22T03:38:49;18.60;99.90
33837;DHT22;20140;49.356;8.812;2023-06-22T03:41:15;18.50;99.90
33837;DHT22;20140;49.356;8.812;2023-06-22T03:43:41;18.50;99.90
33837;DHT22;20140;49.356;8.812;2023-06-22T03:46:07;18.50;99.90
33837;DHT22;20140;49.356;8.812;2023-06-22T03:48:32;18.50;99.90
33837;DHT22;20140;49.356;8.812;2023-06-22T03:50:59;18.50;99.90
33837;DHT22;20140;49.356;8.812;2023-06-22T03:53:25;18.50;99.90
33837;DHT22;20140;49.356;8.812;2023-06-22T03:55:52;18.50;99.90
33837;DHT22;20140;49.356;8.812;2023-06-22T03:58:19;18.50;99.90
33837;DHT22;20140;49.356;8.812;2023-06-22T04:00:53;18.50;99.90
33837;DHT22;20140;49.356;8.812;2023-06-22T04:03:19;18.50;99.90
33837;DHT22;20140;49.356;8.812;2023-06-22T04:05:45;18.60;99.90
33837;DHT22;20140;49.356;8.812;2023-06-22T04:08:12;18.60;99.90
33837;DHT22;20140;49.356;8.812;2023-06-22T04:10:37;18.60;99.90
33837;DHT22;20140;49.356;8.812;2023-06-22T04:13:03;18.60;99.90
33837;DHT22;20140;49.356;8.812;2023-06-22T04:15:28;18.50;99.90
33837;DHT22;20140;49.356;8.812;2023-06-22T04:17:55;18.50;99.90
33837;DHT22;20140;49.356;8.812;2023-06-22T04:20:21;18.50;99.90
33837;DHT22;20140;49.356;8.812;2023-06-22T04:22:47;18.60;99.90
33837;DHT22;20140;49.356;8.812;2023-06-22T04:25:14;18.50;99.90
33837;DHT22;20140;49.356;8.812;2023-06-22T04:27:39;18.60;99.90
33837;DHT22;20140;49.356;8.812;2023-06-22T04:30:08;18.60;99.90
33837;DHT22;20140;49.356;8.812;2023-06-22T04:32:37;18.60;99.90
33837;DHT22;20140;49.356;8.812;2023-06-22T04:35:03;18.70;99.90
33837;DHT22;20140;49.356;8.812;2023-06-22T04:37:32;18.70;99.90
33837;DHT22;20140;49.356;8.812;2023-06-22T04:39:58;18.80;99.90
33837;DHT22;20140;49.356;8.812;2023-06-22T04:42:26;18.80;99.90
33837;DHT22;20140;49.356;8.812;2023-06-22T04:44:51;18.80;99.90
33837;DHT22;20140;49.356;8.812;2023-06-22T04:47:17;18.90;99.90
33837;DHT22;20140;49.356;8.812;2023-06-22T04:49:42;18.90;99.90
33837;DHT22;20140;49.356;8.812;2023-06-22T04:52:09;19.00;99.90
33837;DHT22;20140;49.356;8.812;2023-06-22T04:54:36;19.00;99.90
33837;DHT22;20140;49.356;8.812;2023-06-22T04:57:04;19.00;99.90
33837;DHT22;20140;49.356;8.812;2023-06-22T04:59:31;19.10;99.90
33837;DHT22;20140;49.356;8.812;2023-06-22T05:01:57;19.20;99.90
33837;DHT22;20140;49.356;8.812;2023-06-22T05:04:24;19.20;99.90
33837;DHT22;20140;49.356;8.812;2023-06-22T05:06:50;19.20;99.90
33837;DHT22;20140;49.356;8.812;2023-06-22T05:09:16;19.20;99.90
33837;DHT22;20140;49.356;8.812;2023-06-22T05:11:42;19.30;99.90
33837;DHT22;20140;49.356;8.812;2023-06-22T05:14:08;19.40;99.90
33837;DHT22;20140;49.356;8.812;2023-06-22T05:16:34;19.40;99.90
33837;DHT22;20140;49.356;8.812;2023-06-22T05:18:59;19.50;99.90
33837;DHT22;20140;49.356;8.812;2023-06-22T05:21:26;19.50;99.90
33837;DHT22;20140;49.356;8.812;2023-06-22T05:23:55;19.60;99.90
33837;DHT22;20140;49.356;8.812;2023-06-22T05:26:25;19.60;99.90
33837;DHT22;20140;49.356;8.812;2023-06-22T05:28:50;19.70;99.90
33837;DHT22;20140;49.356;8.812;2023-06-22T05:31:16;19.80;99.90
33837;DHT22;20140;49.356;8.812;2023-06-22T05:33:43;19.90;99.90
33837;DHT22;20140;49.356;8.812;2023-06-22T05:36:09;19.90;99.90
33837;DHT22;20140;49.356;8.812;2023-06-22T05:38:35;20.00;99.90
33837;DHT22;20140;49.356;8.812;2023-06-22T05:41:01;20.10;99.90
33837;DHT22;20140;49.356;8.812;2023-06-22T05:43:27;20.20;99.90
33837;DHT22;20140;49.356;8.812;2023-06-22T05:45:52;20.20;99.90
33837;DHT22;20140;49.356;8.812;2023-06-22T05:48:18;20.20;99.90
33837;DHT22;20140;49.356;8.812;2023-06-22T05:50:43;20.30;99.90
33837;DHT22;20140;49.356;8.812;2023-06-22T05:53:09;20.30;99.90
33837;DHT22;20140;49.356;8.812;2023-06-22T05:55:34;20.40;99.90
33837;DHT22;20140;49.356;8.812;2023-06-22T05:58:00;20.50;99.90
33837;DHT22;20140;49.356;8.812;2023-06-22T06:00:25;20.60;99.90
33837;DHT22;20140;49.356;8.812;2023-06-22T06:02:51;20.60;99.90
33837;DHT22;20140;49.356;8.812;2023-06-22T06:05:16;20.60;99.90
33837;DHT22;20140;49.356;8.812;2023-06-22T06:07:44;20.70;99.90
33837;DHT22;20140;49.356;8.812;2023-06-22T06:10:10;20.90;99.90
33837;DHT22;20140;49.356;8.812;2023-06-22T06:12:36;21.00;99.90
33837;DHT22;20140;49.356;8.812;2023-06-22T06:15:02;21.10;99.90
33837;DHT22;20140;49.356;8.812;2023-06-22T06:17:27;21.20;99.90
33837;DHT22;20140;49.356;8.812;2023-06-22T06:19:53;21.20;99.90
33837;DHT22;20140;49.356;8.812;2023-06-22T06:22:18;21.30;99.90
33837;DHT22;20140;49.356;8.812;2023-06-22T06:24:46;21.30;99.90
33837;DHT22;20140;49.356;8.812;2023-06-22T06:27:11;21.50;99.90
33837;DHT22;20140;49.356;8.812;2023-06-22T06:29:37;21.50;99.90
33837;DHT22;20140;49.356;8.812;2023-06-22T06:32:02;21.60;99.90
33837;DHT22;20140;49.356;8.812;2023-06-22T06:34:28;21.60;99.90
33837;DHT22;20140;49.356;8.812;2023-06-22T06:36:54;21.70;99.90
33837;DHT22;20140;49.356;8.812;2023-06-22T06:39:19;21.80;99.90
33837;DHT22;20140;49.356;8.812;2023-06-22T06:41:45;21.90;99.90
33837;DHT22;20140;49.356;8.812;2023-06-22T06:44:11;22.00;99.90
33837;DHT22;20140;49.356;8.812;2023-06-22T06:46:37;22.20;99.90
33837;DHT22;20140;49.356;8.812;2023-06-22T06:49:03;22.20;99.90
33837;DHT22;20140;49.356;8.812;2023-06-22T06:51:28;22.20;99.90
33837;DHT22;20140;49.356;8.812;2023-06-22T06:53:54;22.30;99.90
33837;DHT22;20140;49.356;8.812;2023-06-22T06:56:20;22.40;99.90
33837;DHT22;20140;49.356;8.812;2023-06-22T06:58:45;22.50;99.90
33837;DHT22;20140;49.356;8.812;2023-06-22T07:01:12;22.60;99.90
33837;DHT22;20140;49.356;8.812;2023-06-22T07:03:38;22.60;99.90
33837;DHT22;20140;49.356;8.812;2023-06-22T07:06:03;22.70;99.90
33837;DHT22;20140;49.356;8.812;2023-06-22T07:08:29;22.70;99.90
33837;DHT22;20140;49.356;8.812;2023-06-22T07:10:55;22.70;99.90
33837;DHT22;20140;49.356;8.812;2023-06-22T07:13:20;22.80;99.90
33837;DHT22;20140;49.356;8.812;2023-06-22T07:15:46;22.70;99.90
33837;DHT22;20140;49.356;8.812;2023-06-22T07:18:11;22.80;99.90
33837;DHT22;20140;49.356;8.812;2023-06-22T07:20:37;22.90;99.90
33837;DHT22;20140;49.356;8.812;2023-06-22T07:23:04;23.00;99.90
33837;DHT22;20140;49.356;8.812;2023-06-22T07:25:30;23.00;99.90
33837;DHT22;20140;49.356;8.812;2023-06-22T07:28:01;23.00;99.90
33837;DHT22;20140;49.356;8.812;2023-06-22T07:30:27;23.20;99.90
33837;DHT22;20140;49.356;8.812;2023-06-22T07:32:54;23.20;99.90
33837;DHT22;20140;49.356;8.812;2023-06-22T07:35:19;23.20;99.90
33837;DHT22;20140;49.356;8.812;2023-06-22T07:37:45;23.40;99.90
33837;DHT22;20140;49.356;8.812;2023-06-22T07:40:11;23.50;99.90
33837;DHT22;20140;49.356;8.812;2023-06-22T07:42:36;23.40;99.90
33837;DHT22;20140;49.356;8.812;2023-06-22T07:45:03;23.50;99.90
33837;DHT22;20140;49.356;8.812;2023-06-22T07:47:29;23.70;99.90
33837;DHT22;20140;49.356;8.812;2023-06-22T07:49:58;23.70;99.90
33837;DHT22;20140;49.356;8.812;2023-06-22T07:52:24;23.80;99.90
33837;DHT22;20140;49.356;8.812;2023-06-22T07:54:51;23.90;99.90
33837;DHT22;20140;49.356;8.812;2023-06-22T07:57:16;24.00;99.90
33837;DHT22;20140;49.356;8.812;2023-06-22T07:59:42;24.00;99.90
33837;DHT22;20140;49.356;8.812;2023-06-22T08:02:07;24.20;99.90
33837;DHT22;20140;49.356;8.812;2023-06-22T08:04:34;24.20;99.90
33837;DHT22;20140;49.356;8.812;2023-06-22T08:07:00;24.20;99.90
33837;DHT22;20140;49.356;8.812;2023-06-22T08:09:28;24.30;99.90
33837;DHT22;20140;49.356;8.812;2023-06-22T08:11:54;24.30;99.90
33837;DHT22;20140;49.356;8.812;2023-06-22T08:14:22;24.30;99.90
33837;DHT22;20140;49.356;8.812;2023-06-22T08:16:48;24.30;99.90
33837;DHT22;20140;49.356;8.812;2023-06-22T08:19:14;24.50;99.90
33837;DHT22;20140;49.356;8.812;2023-06-22T08:21:39;24.70;99.90
33837;DHT22;20140;49.356;8.812;2023-06-22T08:24:05;24.70;99.90
33837;DHT22;20140;49.356;8.812;2023-06-22T08:26:32;24.80;99.90
33837;DHT22;20140;49.356;8.812;2023-06-22T08:29:01;25.00;99.90
33837;DHT22;20140;49.356;8.812;2023-06-22T08:31:27;25.10;99.90
33837;DHT22;20140;49.356;8.812;2023-06-22T08:33:53;25.10;99.90
33837;DHT22;20140;49.356;8.812;2023-06-22T08:36:18;25.20;99.90
33837;DHT22;20140;49.356;8.812;2023-06-22T08:38:44;25.40;99.90
33837;DHT22;20140;49.356;8.812;2023-06-22T08:41:10;25.60;99.90
33837;DHT22;20140;49.356;8.812;2023-06-22T08:43:36;25.80;99.90
33837;DHT22;20140;49.356;8.812;2023-06-22T08:46:01;25.80;99.90
33837;DHT22;20140;49.356;8.812;2023-06-22T08:48:29;25.80;99.90
33837;DHT22;20140;49.356;8.812;2023-06-22T08:50:54;25.90;99.90
33837;DHT22;20140;49.356;8.812;2023-06-22T08:53:20;25.90;99.90
33837;DHT22;20140;49.356;8.812;2023-06-22T08:55:46;26.30;99.90
33837;DHT22;20140;49.356;8.812;2023-06-22T08:58:11;26.40;99.90
33837;DHT22;20140;49.356;8.812;2023-06-22T09:00:37;26.50;99.90
33837;DHT22;20140;49.356;8.812;2023-06-22T09:03:02;26.60;99.90
33837;DHT22;20140;49.356;8.812;2023-06-22T09:05:29;26.70;99.90
33837;DHT22;20140;49.356;8.812;2023-06-22T09:07:56;26.80;99.90
33837;DHT22;20140;49.356;8.812;2023-06-22T09:10:24;26.90;99.90
33837;DHT22;20140;49.356;8.812;2023-06-22T09:12:49;27.00;99.90
33837;DHT22;20140;49.356;8.812;2023-06-22T09:15:15;27.20;99.90
33837;DHT22;20140;49.356;8.812;2023-06-22T09:17:40;27.30;99.90
33837;DHT22;20140;49.356;8.812;2023-06-22T09:20:07;27.30;99.90
33837;DHT22;20140;49.356;8.812;2023-06-22T09:22:35;27.40;99.90
33837;DHT22;20140;49.356;8.812;2023-06-22T09:25:00;27.50;99.90
33837;DHT22;20140;49.356;8.812;2023-06-22T09:27:25;27.40;99.90
33837;DHT22;20140;49.356;8.812;2023-06-22T09:29:51;27.50;99.90
33837;DHT22;20140;49.356;8.812;2023-06-22T09:32:16;27.60;99.90
33837;DHT22;20140;49.356;8.812;2023-06-22T09:34:42;27.80;99.90
33837;DHT22;20140;49.356;8.812;2023-06-22T09:37:08;28.20;99.90
33837;DHT22;20140;49.356;8.812;2023-06-22T09:39:33;28.10;99.90
33837;DHT22;20140;49.356;8.812;2023-06-22T09:41:59;28.10;99.90
33837;DHT22;20140;49.356;8.812;2023-06-22T09:44:28;28.30;99.90
33837;DHT22;20140;49.356;8.812;2023-06-22T09:46:53;28.40;99.90
33837;DHT22;20140;49.356;8.812;2023-06-22T09:49:19;28.50;99.90
33837;DHT22;20140;49.356;8.812;2023-06-22T09:51:44;28.60;99.90
33837;DHT22;20140;49.356;8.812;2023-06-22T09:54:10;28.50;99.90
33837;DHT22;20140;49.356;8.812;2023-06-22T09:56:35;28.40;99.90
33837;DHT22;20140;49.356;8.812;2023-06-22T09:59:02;28.20;99.90
33837;DHT22;20140;49.356;8.812;2023-06-22T10:01:28;28.30;99.90
33837;DHT22;20140;49.356;8.812;2023-06-22T10:03:54;28.30;99.90
33837;DHT22;20140;49.356;8.812;2023-06-22T10:06:23;28.40;99.90
33837;DHT22;20140;49.356;8.812;2023-06-22T10:08:50;28.70;99.90
33837;DHT22;20140;49.356;8.812;2023-06-22T10:11:16;29.00;99.90
33837;DHT22;20140;49.356;8.812;2023-06-22T10:13:42;29.10;99.90
33837;DHT22;20140;49.356;8.812;2023-06-22T10:16:07;29.30;99.90
33837;DHT22;20140;49.356;8.812;2023-06-22T10:18:33;29.40;99.90
33837;DHT22;20140;49.356;8.812;2023-06-22T10:20:58;29.60;99.90
33837;DHT22;20140;49.356;8.812;2023-06-22T10:23:24;29.60;99.90
33837;DHT22;20140;49.356;8.812;2023-06-22T10:25:49;29.80;99.90
33837;DHT22;20140;49.356;8.812;2023-06-22T10:28:15;29.90;99.90
33837;DHT22;20140;49.356;8.812;2023-06-22T10:30:41;29.90;99.90
33837;DHT22;20140;49.356;8.812;2023-06-22T10:33:08;30.20;99.90
33837;DHT22;20140;49.356;8.812;2023-06-22T10:35:34;30.30;99.90
33837;DHT22;20140;49.356;8.812;2023-06-22T10:37:59;30.30;99.90
33837;DHT22;20140;49.356;8.812;2023-06-22T10:40:25;30.10;99.90
33837;DHT22;20140;49.356;8.812;2023-06-22T10:42:51;29.90;99.90
33837;DHT22;20140;49.356;8.812;2023-06-22T10:45:16;29.70;99.90
33837;DHT22;20140;49.356;8.812;2023-06-22T10:47:42;29.90;99.90
33837;DHT22;20140;49.356;8.812;2023-06-22T10:50:08;30.00;99.90
33837;DHT22;20140;49.356;8.812;2023-06-22T10:52:33;30.10;99.90
33837;DHT22;20140;49.356;8.812;2023-06-22T10:54:59;30.20;99.90
33837;DHT22;20140;49.356;8.812;2023-06-22T10:57:24;29.90;99.90
33837;DHT22;20140;49.356;8.812;2023-06-22T10:59:50;30.10;99.90
33837;DHT22;20140;49.356;8.812;2023-06-22T11:02:15;30.20;99.90
33837;DHT22;20140;49.356;8.812;2023-06-22T11:04:41;30.30;99.90
33837;DHT22;20140;49.356;8.812;2023-06-22T11:07:06;30.30;99.90
33837;DHT22;20140;49.356;8.812;2023-06-22T11:09:32;30.10;99.90
33837;DHT22;20140;49.356;8.812;2023-06-22T11:11:57;30.10;99.90
33837;DHT22;20140;49.356;8.812;2023-06-22T11:14:24;30.20;99.90
33837;DHT22;20140;49.356;8.812;2023-06-22T11:16:50;30.30;99.90
33837;DHT22;20140;49.356;8.812;2023-06-22T11:19:16;30.40;99.90
33837;DHT22;20140;49.356;8.812;2023-06-22T11:21:41;30.60;99.90
33837;DHT22;20140;49.356;8.812;2023-06-22T11:24:07;30.90;99.90
33837;DHT22;20140;49.356;8.812;2023-06-22T11:26:33;30.80;99.90
33837;DHT22;20140;49.356;8.812;2023-06-22T11:28:58;30.80;99.90
33837;DHT22;20140;49.356;8.812;2023-06-22T11:31:24;30.70;99.90
33837;DHT22;20140;49.356;8.812;2023-06-22T11:33:50;30.90;99.90
33837;DHT22;20140;49.356;8.812;2023-06-22T11:36:16;31.20;99.90
33837;DHT22;20140;49.356;8.812;2023-06-22T11:38:44;30.80;99.90
33837;DHT22;20140;49.356;8.812;2023-06-22T11:41:10;31.00;99.90
33837;DHT22;20140;49.356;8.812;2023-06-22T11:43:36;30.90;99.90
33837;DHT22;20140;49.356;8.812;2023-06-22T11:46:05;30.90;99.90
33837;DHT22;20140;49.356;8.812;2023-06-22T11:48:31;31.10;99.90
33837;DHT22;20140;49.356;8.812;2023-06-22T11:50:57;31.40;99.90
33837;DHT22;20140;49.356;8.812;2023-06-22T11:53:25;31.30;99.90
33837;DHT22;20140;49.356;8.812;2023-06-22T11:55:51;31.50;99.90
33837;DHT22;20140;49.356;8.812;2023-06-22T11:58:18;31.30;99.90
33837;DHT22;20140;49.356;8.812;2023-06-22T12:00:43;31.30;99.90
33837;DHT22;20140;49.356;8.812;2023-06-22T12:03:09;31.20;99.90
33837;DHT22;20140;49.356;8.812;2023-06-22T12:05:34;30.60;99.90
33837;DHT22;20140;49.356;8.812;2023-06-22T12:08:00;30.50;99.90
33837;DHT22;20140;49.356;8.812;2023-06-22T12:10:26;30.40;99.90
33837;DHT22;20140;49.356;8.812;2023-06-22T12:12:55;30.50;99.90
33837;DHT22;20140;49.356;8.812;2023-06-22T12:15:22;30.50;99.90
33837;DHT22;20140;49.356;8.812;2023-06-22T12:17:48;30.30;99.90
33837;DHT22;20140;49.356;8.812;2023-06-22T12:20:14;30.40;99.90
33837;DHT22;20140;49.356;8.812;2023-06-22T12:22:41;30.60;99.90
33837;DHT22;20140;49.356;8.812;2023-06-22T12:25:07;30.70;99.90
33837;DHT22;20140;49.356;8.812;2023-06-22T12:27:33;30.80;99.90
33837;DHT22;20140;49.356;8.812;2023-06-22T12:29:59;30.80;99.90
33837;DHT22;20140;49.356;8.812;2023-06-22T12:32:24;30.60;99.90
33837;DHT22;20140;49.356;8.812;2023-06-22T12:34:51;30.70;99.90
33837;DHT22;20140;49.356;8.812;2023-06-22T12:37:16;30.80;99.90
33837;DHT22;20140;49.356;8.812;2023-06-22T12:39:42;30.80;99.90
33837;DHT22;20140;49.356;8.812;2023-06-22T12:42:08;30.90;99.90
33837;DHT22;20140;49.356;8.812;2023-06-22T12:44:35;31.00;99.90
33837;DHT22;20140;49.356;8.812;2023-06-22T12:47:00;31.50;99.90
33837;DHT22;20140;49.356;8.812;2023-06-22T12:49:26;32.00;99.90
33837;DHT22;20140;49.356;8.812;2023-06-22T12:51:52;31.70;99.90
33837;DHT22;20140;49.356;8.812;2023-06-22T12:54:17;31.90;99.90
33837;DHT22;20140;49.356;8.812;2023-06-22T12:56:43;31.90;99.90
33837;DHT22;20140;49.356;8.812;2023-06-22T12:59:10;31.70;99.90
33837;DHT22;20140;49.356;8.812;2023-06-22T13:01:35;31.50;99.90
33837;DHT22;20140;49.356;8.812;2023-06-22T13:04:02;31.70;99.90
33837;DHT22;20140;49.356;8.812;2023-06-22T13:06:28;31.40;99.90
33837;DHT22;20140;49.356;8.812;2023-06-22T13:08:53;31.30;99.90
33837;DHT22;20140;49.356;8.812;2023-06-22T13:11:19;31.30;99.90
33837;DHT22;20140;49.356;8.812;2023-06-22T13:13:45;31.80;99.90
33837;DHT22;20140;49.356;8.812;2023-06-22T13:16:11;32.00;99.90
33837;DHT22;20140;49.356;8.812;2023-06-22T13:18:36;32.20;99.90
33837;DHT22;20140;49.356;8.812;2023-06-22T13:21:02;32.40;99.90
33837;DHT22;20140;49.356;8.812;2023-06-22T13:23:28;32.50;99.90
33837;DHT22;20140;49.356;8.812;2023-06-22T13:25:53;32.60;99.90
33837;DHT22;20140;49.356;8.812;2023-06-22T13:28:19;32.50;99.90
33837;DHT22;20140;49.356;8.812;2023-06-22T13:30:46;32.10;99.90
33837;DHT22;20140;49.356;8.812;2023-06-22T13:33:13;32.20;99.90
33837;DHT22;20140;49.356;8.812;2023-06-22T13:35:39;32.20;99.90
33837;DHT22;20140;49.356;8.812;2023-06-22T13:38:05;32.80;99.90
33837;DHT22;20140;49.356;8.812;2023-06-22T13:40:30;33.20;99.90
33837;DHT22;20140;49.356;8.812;2023-06-22T13:42:56;33.60;99.90
33837;DHT22;20140;49.356;8.812;2023-06-22T13:45:22;34.10;99.90
33837;DHT22;20140;49.356;8.812;2023-06-22T13:47:48;34.20;99.00
33837;DHT22;20140;49.356;8.812;2023-06-22T13:50:13;34.50;96.10
33837;DHT22;20140;49.356;8.812;2023-06-22T13:52:39;34.50;99.20
33837;DHT22;20140;49.356;8.812;2023-06-22T13:55:05;33.90;99.00
33837;DHT22;20140;49.356;8.812;2023-06-22T13:57:32;34.90;96.30
33837;DHT22;20140;49.356;8.812;2023-06-22T13:59:57;35.10;95.30
33837;DHT22;20140;49.356;8.812;2023-06-22T14:02:23;34.70;96.00
33837;DHT22;20140;49.356;8.812;2023-06-22T14:04:49;34.20;96.10
33837;DHT22;20140;49.356;8.812;2023-06-22T14:07:14;34.00;95.40
33837;DHT22;20140;49.356;8.812;2023-06-22T14:09:40;33.60;96.90
33837;DHT22;20140;49.356;8.812;2023-06-22T14:12:09;34.00;99.10
33837;DHT22;20140;49.356;8.812;2023-06-22T14:14:35;34.30;96.70
33837;DHT22;20140;49.356;8.812;2023-06-22T14:17:00;35.20;94.00
33837;DHT22;20140;49.356;8.812;2023-06-22T14:19:26;35.70;94.10
33837;DHT22;20140;49.356;8.812;2023-06-22T14:21:51;35.20;93.90
33837;DHT22;20140;49.356;8.812;2023-06-22T14:24:17;35.10;93.60
33837;DHT22;20140;49.356;8.812;2023-06-22T14:26:43;35.20;93.00
33837;DHT22;20140;49.356;8.812;2023-06-22T14:29:08;35.40;92.60
33837;DHT22;20140;49.356;8.812;2023-06-22T14:31:34;34.20;94.10
33837;DHT22;20140;49.356;8.812;2023-06-22T14:34:00;33.30;96.00
33837;DHT22;20140;49.356;8.812;2023-06-22T14:36:27;32.20;99.10
33837;DHT22;20140;49.356;8.812;2023-06-22T14:38:53;32.20;98.90
33837;DHT22;20140;49.356;8.812;2023-06-22T14:41:19;31.70;99.90
33837;DHT22;20140;49.356;8.812;2023-06-22T14:43:49;31.70;99.90
33837;DHT22;20140;49.356;8.812;2023-06-22T14:46:17;31.60;99.90
33837;DHT22;20140;49.356;8.812;2023-06-22T14:48:42;31.40;99.90
33837;DHT22;20140;49.356;8.812;2023-06-22T14:51:09;31.30;99.90
33837;DHT22;20140;49.356;8.812;2023-06-22T14:53:35;31.10;99.90
33837;DHT22;20140;49.356;8.812;2023-06-22T14:56:01;30.90;99.90
33837;DHT22;20140;49.356;8.812;2023-06-22T14:58:28;30.90;99.90
33837;DHT22;20140;49.356;8.812;2023-06-22T15:00:53;30.70;99.90
33837;DHT22;20140;49.356;8.812;2023-06-22T15:03:19;30.60;99.90
33837;DHT22;20140;49.356;8.812;2023-06-22T15:05:50;30.50;99.90
33837;DHT22;20140;49.356;8.812;2023-06-22T15:08:16;30.40;99.90
33837;DHT22;20140;49.356;8.812;2023-06-22T15:10:41;30.40;99.90
33837;DHT22;20140;49.356;8.812;2023-06-22T15:13:07;30.50;99.90
33837;DHT22;20140;49.356;8.812;2023-06-22T15:15:32;30.70;99.90
33837;DHT22;20140;49.356;8.812;2023-06-22T15:17:59;30.50;99.90
33837;DHT22;20140;49.356;8.812;2023-06-22T15:20:24;30.50;99.90
33837;DHT22;20140;49.356;8.812;2023-06-22T15:22:49;30.70;99.90
33837;DHT22;20140;49.356;8.812;2023-06-22T15:25:15;31.00;99.90
33837;DHT22;20140;49.356;8.812;2023-06-22T15:27:41;31.50;99.90
33837;DHT22;20140;49.356;8.812;2023-06-22T15:30:06;31.80;99.90